createdAt,value
2022-10-25T00:04:54.742Z,12.90
2022-10-25T00:09:56.861Z,13.00
2022-10-25T00:15:02.662Z,13.10
2022-10-25T00:20:06.832Z,13.20
2022-10-25T00:25:09.692Z,13.20
2022-10-25T00:30:12.464Z,13.20
2022-10-25T00:35:14.772Z,13.20
2022-10-25T00:40:17.827Z,13.20
2022-10-25T00:45:24.381Z,13.20
2022-10-25T00:50:35.263Z,13.20
2022-10-25T00:55:42.629Z,13.10
2022-10-25T01:00:46.014Z,13.10
2022-10-25T01:05:50.143Z,13.00
2022-10-25T01:10:52.301Z,13.00
2022-10-25T01:16:03.733Z,13.00
2022-10-25T01:21:36.031Z,12.90
2022-10-25T01:26:47.023Z,12.90
2022-10-25T01:31:53.324Z,12.90
2022-10-25T01:36:59.750Z,12.90
2022-10-25T01:42:25.645Z,12.90
2022-10-25T01:47:36.653Z,12.80
2022-10-25T01:52:38.739Z,12.90
2022-10-25T01:58:01.749Z,12.80
2022-10-25T02:03:06.561Z,12.70
2022-10-25T02:08:22.953Z,12.70
2022-10-25T02:13:28.185Z,12.70
2022-10-25T02:18:37.484Z,12.60
2022-10-25T02:23:40.612Z,12.50
2022-10-25T02:28:43.071Z,12.50
2022-10-25T02:33:47.193Z,12.40
2022-10-25T02:38:51.159Z,12.40
2022-10-25T02:43:53.244Z,12.40
2022-10-25T02:48:55.385Z,12.40
2022-10-25T02:53:57.601Z,12.40
2022-10-25T02:58:59.835Z,12.30
2022-10-25T03:04:02.135Z,12.30
2022-10-25T03:09:04.920Z,12.20
2022-10-25T03:14:07.073Z,12.20
2022-10-25T03:19:09.284Z,12.20
2022-10-25T03:24:11.474Z,12.10
2022-10-25T03:29:13.744Z,12.10
2022-10-25T03:34:15.922Z,12.00
2022-10-25T03:39:18.169Z,12.00
2022-10-25T03:44:20.511Z,11.90
2022-10-25T03:49:22.680Z,11.80
2022-10-25T03:54:28.340Z,11.80
2022-10-25T03:59:31.668Z,11.80
2022-10-25T04:04:33.742Z,11.90
2022-10-25T04:09:35.878Z,11.80
2022-10-25T04:14:38.078Z,11.80
2022-10-25T04:19:40.212Z,11.70
2022-10-25T04:24:42.254Z,11.70
2022-10-25T04:29:44.476Z,11.70
2022-10-25T04:34:46.517Z,11.70
2022-10-25T04:39:48.604Z,11.70
2022-10-25T04:44:50.742Z,11.70
2022-10-25T04:49:52.819Z,11.70
2022-10-25T04:54:54.902Z,11.60
2022-10-25T04:59:57.711Z,11.50
2022-10-25T05:04:59.791Z,11.60
2022-10-25T05:10:01.936Z,11.50
2022-10-25T05:15:04.859Z,11.60
2022-10-25T05:20:07.532Z,11.50
2022-10-25T05:25:09.801Z,11.50
2022-10-25T05:30:12.417Z,11.40
2022-10-25T05:35:14.623Z,11.30
2022-10-25T05:40:16.763Z,11.30
2022-10-25T05:45:18.830Z,11.20
2022-10-25T05:50:21.027Z,11.30
2022-10-25T05:55:23.101Z,11.20
2022-10-25T06:00:25.435Z,11.20
2022-10-25T06:05:27.676Z,11.20
2022-10-25T06:10:29.722Z,11.10
2022-10-25T06:15:31.923Z,11.30
2022-10-25T06:20:33.999Z,11.30
2022-10-25T06:25:36.164Z,11.30
2022-10-25T06:30:38.446Z,11.50
2022-10-25T06:35:40.615Z,11.50
2022-10-25T06:40:42.776Z,11.80
2022-10-25T06:45:44.872Z,11.80
2022-10-25T06:50:49.888Z,11.80
2022-10-25T06:55:54.293Z,11.90
2022-10-25T07:01:00.226Z,11.80
2022-10-25T07:06:06.616Z,11.80
2022-10-25T07:11:17.315Z,11.80
2022-10-25T07:16:20.953Z,11.90
2022-10-25T07:21:23.416Z,12.00
2022-10-25T07:26:26.904Z,12.00
2022-10-25T07:31:35.367Z,12.00
2022-10-25T07:36:37.479Z,12.10
2022-10-25T07:41:39.555Z,12.20
2022-10-25T07:46:41.650Z,12.20
2022-10-25T07:51:43.814Z,12.20
2022-10-25T07:56:45.948Z,12.20
2022-10-25T08:01:48.208Z,12.30
2022-10-25T08:06:50.516Z,12.40
2022-10-25T08:11:52.687Z,12.60
2022-10-25T08:16:54.967Z,12.80
2022-10-25T08:21:57.052Z,12.90
2022-10-25T08:26:59.333Z,13.10
2022-10-25T08:32:01.403Z,13.20
2022-10-25T08:37:03.721Z,13.40
2022-10-25T08:42:06.287Z,13.50
2022-10-25T08:47:43.830Z,13.80
2022-10-25T08:53:18.656Z,14.00
2022-10-25T08:58:43.679Z,14.20
2022-10-25T09:03:45.805Z,14.20
2022-10-25T09:09:04.148Z,14.40
2022-10-25T09:14:25.018Z,14.50
2022-10-25T09:19:35.896Z,14.60
2022-10-25T09:24:57.903Z,14.70
2022-10-25T09:30:10.475Z,14.60
2022-10-25T09:35:24.236Z,14.60
2022-10-25T09:40:33.118Z,14.70
2022-10-25T09:45:48.739Z,14.80
2022-10-25T09:51:03.380Z,14.70
2022-10-25T09:56:05.868Z,15.10
2022-10-25T10:01:14.714Z,15.20
2022-10-25T10:06:27.580Z,15.40
2022-10-25T10:11:30.214Z,15.50
2022-10-25T10:16:36.537Z,15.60
2022-10-25T10:21:47.202Z,15.80
2022-10-25T10:26:55.530Z,15.90
2022-10-25T10:32:03.109Z,15.90
2022-10-25T10:37:17.151Z,16.00
2022-10-25T10:42:24.574Z,16.10
2022-10-25T10:47:32.010Z,16.00
2022-10-25T10:52:42.165Z,16.30
2022-10-25T10:57:45.094Z,16.30
2022-10-25T11:02:47.714Z,16.30
2022-10-25T11:08:21.703Z,16.40
2022-10-25T11:13:25.794Z,16.30
2022-10-25T11:18:58.761Z,16.40
2022-10-25T11:24:34.981Z,16.40
2022-10-25T11:29:52.044Z,16.40
2022-10-25T11:35:23.651Z,16.40
2022-10-25T11:40:41.264Z,16.40
2022-10-25T11:45:49.867Z,16.50
2022-10-25T11:51:03.846Z,16.60
2022-10-25T11:56:26.926Z,16.70
2022-10-25T12:02:06.434Z,16.80
2022-10-25T12:07:59.315Z,16.90
2022-10-25T12:13:35.174Z,16.90
2022-10-25T12:18:50.125Z,16.90
2022-10-25T12:23:54.976Z,16.90
2022-10-25T12:29:06.404Z,16.90
2022-10-25T12:34:32.823Z,16.90
2022-10-25T12:39:43.260Z,16.90
2022-10-25T12:45:04.295Z,16.90
2022-10-25T12:50:09.543Z,16.90
2022-10-25T12:55:31.993Z,16.80
2022-10-25T13:00:55.268Z,16.90
2022-10-25T13:05:57.305Z,16.90
2022-10-25T13:11:02.848Z,17.00
2022-10-25T13:16:08.673Z,17.00
2022-10-25T13:21:34.006Z,17.00
2022-10-25T13:27:14.670Z,17.10
2022-10-25T13:32:21.156Z,17.30
2022-10-25T13:37:32.575Z,17.30
2022-10-25T13:42:36.541Z,17.40
2022-10-25T13:47:40.471Z,17.50
2022-10-25T13:53:26.268Z,17.60
2022-10-25T13:58:32.515Z,17.60
2022-10-25T14:03:51.119Z,17.50
2022-10-25T14:09:12.246Z,17.40
2022-10-25T14:14:21.881Z,17.40
2022-10-25T14:19:51.584Z,17.40
2022-10-25T14:24:54.668Z,17.40
2022-10-25T14:30:35.790Z,17.40
2022-10-25T14:35:49.841Z,17.50
2022-10-25T14:40:59.435Z,17.40
2022-10-25T14:46:14.819Z,17.40
2022-10-25T14:51:25.067Z,17.30
2022-10-25T14:56:56.209Z,17.20
2022-10-25T15:02:02.360Z,17.10
2022-10-25T15:07:07.486Z,17.00
2022-10-25T15:12:12.639Z,16.90
2022-10-25T15:17:30.322Z,16.90
2022-10-25T15:22:38.417Z,16.90
2022-10-25T15:27:42.752Z,16.90
2022-10-25T15:32:45.225Z,16.80
2022-10-25T15:37:47.588Z,16.80
2022-10-25T15:42:49.935Z,16.90
2022-10-25T15:47:55.147Z,16.90
2022-10-25T15:52:58.271Z,16.90
2022-10-25T15:58:00.848Z,16.90
2022-10-25T16:03:03.840Z,16.80
2022-10-25T16:08:08.064Z,16.80
2022-10-25T16:13:29.633Z,17.00
2022-10-25T16:18:32.238Z,17.00
2022-10-25T16:23:34.385Z,17.00
2022-10-25T16:28:36.629Z,16.90
2022-10-25T16:33:38.740Z,16.80
2022-10-25T16:38:41.149Z,16.70
2022-10-25T16:43:48.378Z,16.60
2022-10-25T16:48:51.570Z,16.50
2022-10-25T16:53:53.769Z,16.50
2022-10-25T16:58:56.164Z,16.40
2022-10-25T17:03:58.535Z,16.40
2022-10-25T17:09:00.667Z,16.40
2022-10-25T17:14:02.805Z,16.30
2022-10-25T17:19:05.146Z,16.30
2022-10-25T17:24:09.705Z,16.20
2022-10-25T17:29:12.081Z,16.20
2022-10-25T17:34:14.306Z,16.20
2022-10-25T17:39:17.243Z,16.20
2022-10-25T17:44:19.377Z,16.10
2022-10-25T17:49:21.634Z,16.10
2022-10-25T17:54:23.795Z,16.10
2022-10-25T17:59:27.784Z,16.10
2022-10-25T18:04:41.845Z,16.10
2022-10-25T18:09:52.359Z,16.10
2022-10-25T18:14:55.588Z,16.10
2022-10-25T18:19:58.391Z,16.10
2022-10-25T18:25:01.037Z,16.00
2022-10-25T18:30:04.459Z,16.00
2022-10-25T18:35:06.910Z,16.00
2022-10-25T18:40:10.268Z,15.90
2022-10-25T18:45:12.374Z,15.90
2022-10-25T18:50:14.464Z,15.90
2022-10-25T19:00:26.406Z,15.90
2022-10-25T19:05:29.945Z,15.80
2022-10-25T19:10:32.041Z,15.80
2022-10-25T19:15:34.274Z,15.80
2022-10-25T19:20:40.091Z,15.70
2022-10-25T19:25:44.188Z,15.70
2022-10-25T19:30:46.314Z,15.70
2022-10-25T19:35:48.398Z,15.70
2022-10-25T19:40:50.519Z,15.60
2022-10-25T19:45:56.659Z,15.60
2022-10-25T19:51:05.319Z,15.60
2022-10-25T19:56:08.939Z,15.60
2022-10-25T20:01:13.226Z,15.50
2022-10-25T20:06:21.743Z,15.50
2022-10-25T20:11:28.239Z,15.50
2022-10-25T20:16:30.926Z,15.50
2022-10-25T20:21:35.237Z,15.60
2022-10-25T20:26:40.759Z,15.60
2022-10-25T20:31:42.975Z,15.50
2022-10-25T20:36:45.348Z,15.50
2022-10-25T20:41:47.474Z,15.40
2022-10-25T20:46:50.480Z,15.40
2022-10-25T20:51:52.563Z,15.40
2022-10-25T20:56:54.673Z,15.40
2022-10-25T21:01:56.921Z,15.40
2022-10-25T21:06:59.140Z,15.40
2022-10-25T21:12:01.163Z,15.40
2022-10-25T21:17:03.246Z,15.50
2022-10-25T21:22:05.409Z,15.50
2022-10-25T21:27:09.984Z,15.60
2022-10-25T21:32:12.168Z,15.70
2022-10-25T21:37:14.671Z,15.70
2022-10-25T21:42:16.781Z,15.80
2022-10-25T21:47:18.836Z,15.90
2022-10-25T21:52:20.884Z,16.00
2022-10-25T21:57:22.988Z,16.00
2022-10-25T22:02:25.236Z,16.00
2022-10-25T22:07:27.436Z,16.10
2022-10-25T22:12:29.551Z,16.00
2022-10-25T22:17:31.659Z,16.10
2022-10-25T22:22:33.773Z,16.00
2022-10-25T22:27:35.875Z,16.00
2022-10-25T22:32:40.696Z,15.90
2022-10-25T22:37:42.826Z,15.90
2022-10-25T22:42:44.963Z,15.90
2022-10-25T22:47:47.294Z,15.90
2022-10-25T22:52:49.639Z,15.90
2022-10-25T22:57:51.919Z,15.80
2022-10-25T23:02:54.013Z,15.80
2022-10-25T23:07:56.128Z,15.80
2022-10-25T23:12:58.191Z,15.70
2022-10-25T23:18:00.376Z,15.70
2022-10-25T23:23:02.419Z,15.60
2022-10-25T23:28:04.500Z,15.60
2022-10-25T23:33:07.284Z,15.50
2022-10-25T23:38:12.334Z,15.50
2022-10-25T23:43:14.397Z,15.50
2022-10-25T23:48:16.495Z,15.50
2022-10-25T23:53:18.556Z,15.50
2022-10-25T23:58:21.308Z,15.50
